createdAt,value
2019-04-12T09:43:05.451Z,2376
2019-04-12T09:44:05.388Z,784
2019-04-12T09:45:05.430Z,2348
2019-04-12T09:46:05.436Z,2424
2019-04-12T09:47:05.851Z,2572
2019-04-12T09:48:05.892Z,2680
2019-04-12T09:49:05.968Z,2652
2019-04-12T09:50:05.946Z,2532
2019-04-12T09:51:05.693Z,2548
2019-04-12T09:52:06.099Z,2616
2019-04-12T09:53:06.396Z,2648
2019-04-12T09:54:06.067Z,2688
2019-04-12T09:55:06.256Z,2648
2019-04-12T09:56:06.176Z,2632
2019-04-12T09:57:05.916Z,2576
2019-04-12T09:58:06.475Z,2552
2019-04-12T09:59:06.583Z,2692
2019-04-12T10:00:23.870Z,2864
2019-04-12T10:01:07.487Z,2948
2019-04-12T10:02:20.564Z,2984
2019-04-12T10:03:06.897Z,2960
2019-04-12T10:04:07.306Z,2928
2019-04-12T10:05:07.710Z,2856
2019-04-12T10:06:08.209Z,2848
2019-04-12T10:07:08.207Z,2952
2019-04-12T10:08:08.439Z,3064
2019-04-12T10:09:09.003Z,3184
2019-04-12T10:10:08.135Z,3308
2019-04-12T10:11:09.163Z,3448
2019-04-12T10:12:08.830Z,3584
2019-04-12T10:13:09.018Z,3680
2019-04-12T10:14:14.329Z,3652
2019-04-12T10:15:10.084Z,3732
2019-04-12T10:16:11.785Z,3780
2019-04-12T10:17:09.768Z,3948
2019-04-12T10:18:09.907Z,4140
2019-04-12T10:19:10.514Z,4372
2019-04-12T10:20:10.348Z,4536
2019-04-12T10:21:12.230Z,4648
2019-04-12T10:22:11.606Z,4676
2019-04-12T10:23:10.163Z,4716
2019-04-12T10:24:10.863Z,4708
2019-04-12T10:25:11.024Z,4724
2019-04-12T10:26:10.639Z,4808
2019-04-12T10:27:10.933Z,5024
2019-04-12T10:28:11.004Z,5304
2019-04-12T10:29:10.991Z,5656
2019-04-12T10:30:11.126Z,5980
2019-04-12T10:31:10.758Z,6176
2019-04-12T10:32:11.225Z,6344
2019-04-12T10:33:11.644Z,6464
2019-04-12T10:34:11.743Z,6652
2019-04-12T10:35:11.408Z,6856
2019-04-12T10:36:12.512Z,7072
2019-04-12T10:37:12.533Z,7276
2019-04-12T10:38:12.089Z,7484
2019-04-12T10:39:12.579Z,7728
2019-04-12T10:40:15.640Z,7996
2019-04-12T10:41:12.013Z,8324
2019-04-12T10:42:12.629Z,8516
2019-04-12T10:43:12.302Z,8444
2019-04-12T10:44:12.809Z,8072
2019-04-12T10:45:12.988Z,7668
2019-04-12T10:46:12.498Z,7776
2019-04-12T10:47:13.153Z,7684
2019-04-12T10:48:13.194Z,7236
2019-04-12T10:49:13.329Z,5900
2019-04-12T10:50:13.237Z,5312
2019-04-12T10:51:13.263Z,5412
2019-04-12T10:52:13.679Z,5688
2019-04-12T10:53:14.166Z,6216
2019-04-12T10:54:13.553Z,6208
2019-04-12T10:55:14.113Z,6092
2019-04-12T10:56:15.320Z,6160
2019-04-12T10:57:14.806Z,6884
2019-04-12T10:58:14.927Z,7236
2019-04-12T10:59:14.610Z,6476
2019-04-12T11:00:18.086Z,6820
2019-04-12T11:01:18.254Z,8096
2019-04-12T11:02:18.509Z,8592
2019-04-12T11:03:18.156Z,8920
2019-04-12T11:04:18.706Z,8884
2019-04-12T11:05:18.485Z,8964
2019-04-12T11:06:29.672Z,8936
2019-04-12T11:07:18.792Z,8200
2019-04-12T11:08:18.958Z,7524
2019-04-12T11:09:19.389Z,7920
2019-04-12T11:10:19.421Z,7584
2019-04-12T11:11:21.514Z,7516
2019-04-12T11:12:18.919Z,7892
2019-04-12T11:13:18.818Z,7728
2019-04-12T11:14:18.947Z,7188
2019-04-12T11:15:29.377Z,6760
2019-04-12T11:16:32.089Z,6336
2019-04-12T11:17:28.742Z,6344
2019-04-12T11:18:29.159Z,6512
2019-04-12T11:19:29.834Z,6536
2019-04-12T11:20:29.956Z,7692
2019-04-12T11:21:30.308Z,8308
2019-04-12T11:22:29.644Z,8228
2019-04-12T11:23:29.955Z,7760
2019-04-12T11:24:29.962Z,6940
2019-04-12T11:25:36.512Z,7352
2019-04-12T11:26:29.996Z,7296
2019-04-12T11:27:29.770Z,7132
2019-04-12T11:28:30.439Z,7000
2019-04-12T11:29:30.461Z,6484
2019-04-12T11:30:30.597Z,6092
2019-04-12T11:31:30.249Z,5784
2019-04-12T11:32:30.546Z,5764
2019-04-12T11:33:30.328Z,5676
2019-04-12T11:34:30.599Z,5436
2019-04-12T11:35:30.468Z,5436
2019-04-12T11:36:30.644Z,5572
2019-04-12T11:37:30.423Z,5720
2019-04-12T11:38:30.810Z,5812
2019-04-12T11:39:31.299Z,5384
2019-04-12T11:40:31.239Z,5212
2019-04-12T11:41:31.260Z,5600
2019-04-12T11:42:31.017Z,6276
2019-04-12T11:43:31.690Z,6324
2019-04-12T11:44:31.554Z,6044
2019-04-12T11:45:31.748Z,5936
2019-04-12T11:46:45.117Z,5700
2019-04-12T11:47:45.250Z,6028
2019-04-12T11:48:44.587Z,6476
2019-04-12T11:49:44.266Z,6340
2019-04-12T11:50:44.644Z,5804
2019-04-12T11:51:45.314Z,5356
2019-04-12T11:52:45.350Z,5292
2019-04-12T11:53:46.335Z,5420
2019-04-12T11:54:45.429Z,5460
2019-04-12T11:55:45.563Z,5500
2019-04-12T11:56:45.968Z,5116
2019-04-12T11:57:45.590Z,4992
2019-04-12T11:58:55.941Z,4904
2019-04-12T11:59:55.035Z,4908
2019-04-12T12:00:55.083Z,5180
2019-04-12T12:01:55.480Z,5492
2019-04-12T12:02:55.754Z,5212
2019-04-12T12:03:55.322Z,4724
2019-04-12T12:04:55.887Z,4476
2019-04-12T12:05:55.893Z,4272
2019-04-12T12:06:56.057Z,4472
2019-04-12T12:07:57.774Z,4648
2019-04-12T12:08:57.644Z,4980
2019-04-12T12:09:57.509Z,5336
2019-04-12T12:10:57.989Z,5540
2019-04-12T12:11:57.342Z,5988
2019-04-12T12:12:58.117Z,6572
2019-04-12T12:13:57.675Z,6864
2019-04-12T12:14:58.019Z,6996
2019-04-12T12:15:58.671Z,7096
2019-04-12T12:16:58.611Z,7320
2019-04-12T12:17:58.893Z,7380
2019-04-12T12:18:58.660Z,7324
2019-04-12T12:19:59.079Z,7236
2019-04-12T12:20:59.189Z,6952
2019-04-12T12:22:01.311Z,7440
2019-04-12T12:22:59.878Z,8900
2019-04-12T12:24:00.686Z,9628
2019-04-12T12:25:00.518Z,9632
2019-04-12T12:26:00.306Z,9732
2019-04-12T12:27:00.680Z,9940
2019-04-12T12:28:00.781Z,10268
2019-04-12T12:29:01.030Z,10208
2019-04-12T12:30:01.034Z,9668
2019-04-12T12:31:01.085Z,8328
2019-04-12T12:32:01.392Z,7028
2019-04-12T12:33:01.608Z,6712
2019-04-12T12:34:01.375Z,7324
2019-04-12T12:35:01.938Z,7808
2019-04-12T12:36:01.827Z,7696
2019-04-12T12:37:01.776Z,7164
2019-04-12T12:38:02.074Z,6528
2019-04-12T12:39:02.275Z,5952
2019-04-12T12:40:02.672Z,5376
2019-04-12T12:41:02.675Z,4568
2019-04-12T12:42:02.945Z,3992
2019-04-12T12:43:02.759Z,3884
2019-04-12T12:44:02.701Z,3784
2019-04-12T12:45:02.798Z,3572
2019-04-12T12:46:03.209Z,3528
2019-04-12T12:47:03.609Z,3740
2019-04-12T12:48:03.406Z,4216
2019-04-12T12:49:03.932Z,4248
2019-04-12T12:50:04.219Z,4072
2019-04-12T12:51:04.153Z,3888
2019-04-12T12:52:03.838Z,3856
2019-04-12T12:53:04.161Z,3668
2019-04-12T12:54:03.992Z,3396
2019-04-12T12:55:04.013Z,3244
2019-04-12T12:56:04.500Z,3192
2019-04-12T12:57:04.395Z,3212
2019-04-12T12:58:06.030Z,3288
2019-04-12T12:59:04.225Z,3392
2019-04-12T13:00:17.593Z,3460
2019-04-12T13:01:05.389Z,3492
2019-04-12T13:02:04.845Z,3464
2019-04-12T13:03:04.625Z,3388
2019-04-12T13:04:04.640Z,3252
2019-04-12T13:05:05.108Z,3236
2019-04-12T13:06:09.981Z,3208
2019-04-12T13:07:09.457Z,3264
2019-04-12T13:08:10.032Z,3244
2019-04-12T13:09:10.101Z,3136
2019-04-12T13:10:11.215Z,3044
2019-04-12T13:11:11.353Z,2912
2019-04-12T13:12:11.953Z,2844
2019-04-12T13:13:11.871Z,2764
2019-04-12T13:14:12.360Z,2556
2019-04-12T13:15:12.323Z,2532
2019-04-12T13:16:12.702Z,2412
2019-04-12T13:17:12.740Z,2380
2019-04-12T13:18:12.238Z,2556
2019-04-12T13:19:13.939Z,3008
2019-04-12T13:20:12.644Z,3304
2019-04-12T13:21:12.546Z,3420
2019-04-12T13:22:13.060Z,3428
2019-04-12T13:23:13.429Z,3360
2019-04-12T13:24:13.699Z,3280
2019-04-12T13:25:13.817Z,3148
2019-04-12T13:26:13.643Z,2984
2019-04-12T13:27:13.857Z,2816
2019-04-12T13:28:13.700Z,2820
2019-04-12T13:29:14.183Z,2752
2019-04-12T13:30:14.694Z,2704
2019-04-12T13:31:14.536Z,2632
2019-04-12T13:32:14.596Z,2572
2019-04-12T13:33:14.882Z,2612
2019-04-12T13:34:14.557Z,2704
2019-04-12T13:35:16.411Z,2828
2019-04-12T13:36:15.836Z,2880
2019-04-12T13:37:15.030Z,2848
2019-04-12T13:38:15.429Z,2868
2019-04-12T13:39:15.330Z,2936
2019-04-12T13:40:17.712Z,3080
2019-04-12T13:41:15.534Z,3132
2019-04-12T13:42:15.390Z,3124
2019-04-12T13:43:15.551Z,3192
2019-04-12T13:44:15.996Z,3264
2019-04-12T13:45:16.273Z,3296
2019-04-12T13:46:15.832Z,3532
2019-04-12T13:47:16.461Z,3724
2019-04-12T13:48:16.359Z,3728
2019-04-12T13:49:16.377Z,3800
2019-04-12T13:50:16.210Z,3816
2019-04-12T13:51:15.911Z,3768
2019-04-12T13:52:17.036Z,3752
2019-04-12T13:53:16.359Z,3772
2019-04-12T13:54:15.922Z,3728
2019-04-12T13:55:16.599Z,3716
2019-04-12T13:56:16.329Z,3760
2019-04-12T13:57:16.309Z,3764
2019-04-12T13:58:16.622Z,3736
2019-04-12T13:59:15.985Z,3628
2019-04-12T14:00:29.134Z,3404
2019-04-12T14:01:29.133Z,3256
2019-04-12T14:02:28.782Z,3132
2019-04-12T14:03:29.432Z,2832
2019-04-12T14:04:29.220Z,2828
2019-04-12T14:05:29.815Z,2904
2019-04-12T14:06:29.650Z,2848
2019-04-12T14:07:30.254Z,2596
2019-04-12T14:08:30.268Z,2320
2019-04-12T14:09:30.290Z,1960
2019-04-12T14:10:30.359Z,1608
2019-04-12T14:11:30.471Z,1364
2019-04-12T14:12:30.397Z,1276
2019-04-12T14:13:30.252Z,1360
2019-04-12T14:14:30.200Z,1716
2019-04-12T14:15:31.823Z,2192
2019-04-12T14:16:30.882Z,2496
2019-04-12T14:17:30.619Z,2900
2019-04-12T14:18:30.988Z,3204
2019-04-12T14:19:31.376Z,3340
2019-04-12T14:20:31.028Z,3424
2019-04-12T14:21:31.679Z,3720
2019-04-12T14:22:32.675Z,3956
2019-04-12T14:23:31.500Z,3872
2019-04-12T14:24:32.110Z,3768
2019-04-12T14:25:32.127Z,3656
2019-04-12T14:26:31.518Z,3588
2019-04-12T14:27:31.810Z,3500
2019-04-12T14:28:38.657Z,3228
2019-04-12T14:29:38.790Z,2964
2019-04-12T14:30:41.240Z,2852
2019-04-12T14:31:41.016Z,2540
2019-04-12T14:32:40.735Z,2048
2019-04-12T14:33:41.226Z,1748
2019-04-12T14:34:40.649Z,1608
2019-04-12T14:35:41.246Z,1456
2019-04-12T14:36:41.152Z,1356
2019-04-12T14:37:41.474Z,1320
2019-04-12T14:38:41.416Z,1388
2019-04-12T14:39:42.108Z,1720
2019-04-12T14:40:50.164Z,2008
2019-04-12T14:41:44.253Z,2140
2019-04-12T14:42:42.272Z,2304
2019-04-12T14:43:42.193Z,2320
2019-04-12T14:44:42.004Z,2272
2019-04-12T14:45:41.939Z,2164
2019-04-12T14:46:41.985Z,2104
2019-04-12T14:47:43.285Z,1920
2019-04-12T14:48:42.683Z,1740
2019-04-12T14:49:43.145Z,1628
2019-04-12T14:50:42.905Z,1592
2019-04-12T14:51:43.342Z,1568
2019-04-12T14:52:43.463Z,1488
2019-04-12T14:53:43.390Z,1192
2019-04-12T14:54:43.476Z,888
2019-04-12T14:55:44.143Z,756
2019-04-12T14:56:44.039Z,712
2019-04-12T14:57:44.242Z,772
2019-04-12T14:58:44.452Z,932
2019-04-12T14:59:47.251Z,1152
2019-04-12T15:00:52.696Z,1184
2019-04-12T15:01:44.966Z,1200
2019-04-12T15:02:44.601Z,1188
2019-04-12T15:03:44.947Z,1136
2019-04-12T15:04:45.101Z,1060
2019-04-12T15:05:45.531Z,1020
2019-04-12T15:06:45.861Z,1000
2019-04-12T15:07:45.657Z,1044
2019-04-12T15:08:45.925Z,1088
2019-04-12T15:09:46.167Z,1128
2019-04-12T15:10:47.789Z,1224
2019-04-12T15:11:46.238Z,1304
2019-04-12T15:12:46.866Z,1424
2019-04-12T15:13:47.163Z,1528
2019-04-12T15:14:47.059Z,1528
2019-04-12T15:15:47.655Z,1540
2019-04-12T15:16:47.409Z,1580
2019-04-12T15:17:47.995Z,1624
2019-04-12T15:18:48.142Z,1668
2019-04-12T15:19:48.046Z,1692
2019-04-12T15:20:47.829Z,1692
2019-04-12T15:21:48.408Z,1700
2019-04-12T15:22:48.616Z,1720
2019-04-12T15:23:48.475Z,1740
2019-04-12T15:24:48.498Z,1772
2019-04-12T15:25:48.506Z,1836
2019-04-12T15:26:48.370Z,1904
2019-04-12T15:27:48.742Z,2016
2019-04-12T15:28:49.313Z,2140
2019-04-12T15:29:49.412Z,2252
2019-04-12T15:31:00.700Z,2300
2019-04-12T15:31:49.447Z,2312
2019-04-12T15:32:49.352Z,2348
2019-04-12T15:33:49.265Z,2428
2019-04-12T15:34:49.607Z,2492
2019-04-12T15:35:51.643Z,2548
2019-04-12T15:36:49.652Z,2620
2019-04-12T15:37:49.546Z,2708
2019-04-12T15:38:49.450Z,2772
2019-04-12T15:39:49.809Z,2844
2019-04-12T15:40:49.844Z,2912
2019-04-12T15:41:49.956Z,2972
2019-04-12T15:42:49.875Z,3024
2019-04-12T15:43:49.905Z,3072
2019-04-12T15:44:49.729Z,3132
2019-04-12T15:45:50.065Z,3144
2019-04-12T15:46:50.271Z,3108
2019-04-12T15:47:50.461Z,3072
2019-04-12T15:48:50.486Z,3032
2019-04-12T15:49:50.526Z,2948
2019-04-12T15:50:50.297Z,2804
2019-04-12T15:51:51.002Z,2664
2019-04-12T15:52:50.921Z,2504
2019-04-12T15:53:50.996Z,2348
2019-04-12T15:54:51.017Z,2244
2019-04-12T15:55:51.044Z,2120
2019-04-12T15:56:51.507Z,1956
2019-04-12T15:57:51.405Z,1820
2019-04-12T15:58:51.153Z,1708
2019-04-12T15:59:51.475Z,1576
2019-04-12T16:00:55.777Z,1404
2019-04-12T16:01:52.048Z,1296
2019-04-12T16:02:51.715Z,1176
2019-04-12T16:03:52.102Z,1112
2019-04-12T16:04:52.123Z,1052
2019-04-12T16:05:51.876Z,992
2019-04-12T16:06:52.040Z,932
2019-04-12T16:07:52.455Z,924
2019-04-12T16:08:51.987Z,916
2019-04-12T16:09:52.646Z,900
2019-04-12T16:10:53.145Z,880
2019-04-12T16:11:52.815Z,828
2019-04-12T16:12:53.505Z,772
2019-04-12T16:13:53.649Z,776
2019-04-12T16:14:53.530Z,784
2019-04-12T16:15:53.699Z,756
2019-04-12T16:16:54.067Z,716
2019-04-12T16:17:53.844Z,684
2019-04-12T16:18:54.245Z,692
2019-04-12T16:19:54.380Z,720
2019-04-12T16:20:54.038Z,744
2019-04-12T16:21:54.318Z,744
2019-04-12T16:22:54.072Z,728
2019-04-12T16:23:54.792Z,696
2019-04-12T16:24:54.616Z,664
2019-04-12T16:25:54.871Z,632
2019-04-12T16:26:54.827Z,648
2019-04-12T16:27:55.234Z,660
2019-04-12T16:28:55.365Z,652
2019-04-12T16:29:54.785Z,660
2019-04-12T16:30:55.473Z,636
2019-04-12T16:31:55.625Z,608
2019-04-12T16:32:56.041Z,580
2019-04-12T16:33:55.919Z,564
2019-04-12T16:34:56.325Z,552
2019-04-12T16:35:56.361Z,536
2019-04-12T16:36:56.380Z,520
2019-04-12T16:37:56.567Z,508
2019-04-12T16:38:56.427Z,508
2019-04-12T16:39:56.172Z,500
2019-04-12T16:40:56.545Z,492
2019-04-12T16:41:56.713Z,480
2019-04-12T16:42:57.223Z,468
2019-04-12T16:43:57.128Z,460
2019-04-12T16:44:57.301Z,448
2019-04-12T16:45:57.715Z,456
2019-04-12T16:46:58.118Z,452
2019-04-12T16:47:57.998Z,440
2019-04-12T16:48:58.101Z,424
2019-04-12T16:49:58.893Z,424
2019-04-12T16:50:57.961Z,420
2019-04-12T16:51:58.464Z,408
2019-04-12T16:52:58.661Z,384
2019-04-12T16:53:59.070Z,360
2019-04-12T16:54:59.221Z,336
2019-04-12T16:55:59.345Z,316
2019-04-12T16:57:00.160Z,300
2019-04-12T16:58:00.084Z,284
2019-04-12T16:58:59.607Z,272
2019-04-12T16:59:59.878Z,256
2019-04-12T17:00:59.872Z,228
2019-04-12T17:02:12.232Z,196
2019-04-12T17:03:00.288Z,184
2019-04-12T17:04:00.221Z,168
2019-04-12T17:05:00.619Z,152
2019-04-12T17:06:00.638Z,140
2019-04-12T17:07:00.864Z,144
2019-04-12T17:08:00.791Z,144
2019-04-12T17:09:01.185Z,124
2019-04-12T17:10:01.227Z,108
2019-04-12T17:11:01.740Z,124
2019-04-12T17:12:01.648Z,124
2019-04-12T17:13:01.428Z,112
2019-04-12T17:14:01.812Z,108
2019-04-12T17:15:01.993Z,108
2019-04-12T17:16:02.094Z,112
2019-04-12T17:17:02.016Z,116
2019-04-12T17:18:01.903Z,128
2019-04-12T17:19:02.702Z,132
2019-04-12T17:20:02.986Z,128
2019-04-12T17:21:02.931Z,112
2019-04-12T17:22:02.771Z,104
2019-04-12T17:23:02.771Z,100
2019-04-12T17:24:02.235Z,100
2019-04-12T17:25:13.925Z,100
2019-04-12T17:26:13.509Z,92
2019-04-12T17:27:13.945Z,104
2019-04-12T17:28:14.109Z,104
2019-04-12T17:29:13.858Z,104
2019-04-12T17:30:14.125Z,96
2019-04-12T17:31:16.564Z,88
2019-04-12T17:32:14.329Z,84
2019-04-12T17:33:13.825Z,84
2019-04-12T17:34:14.097Z,84
2019-04-12T17:35:14.870Z,88
2019-04-12T17:36:14.522Z,88
2019-04-12T17:37:14.559Z,76
2019-04-12T17:38:15.204Z,72
2019-04-12T17:39:14.968Z,60
2019-04-12T17:40:15.971Z,56
2019-04-12T17:41:15.378Z,48
2019-04-12T17:42:15.443Z,48
2019-04-12T17:43:16.116Z,48
2019-04-12T17:44:16.164Z,52
2019-04-12T17:45:16.169Z,56
2019-04-12T17:46:16.354Z,52
2019-04-12T17:47:16.365Z,48
2019-04-12T17:48:15.870Z,44
2019-04-12T17:49:16.414Z,40
2019-04-12T17:50:16.914Z,40
2019-04-12T17:51:17.055Z,36
2019-04-12T17:52:16.297Z,36
2019-04-12T17:53:16.856Z,32
2019-04-12T17:54:17.633Z,28
2019-04-12T17:55:18.130Z,24
2019-04-12T17:56:28.984Z,24
2019-04-12T17:57:17.585Z,24
2019-04-12T17:58:17.627Z,20
2019-04-12T17:59:17.731Z,20
2019-04-12T18:00:30.381Z,20
2019-04-12T18:01:17.620Z,20
2019-04-12T18:02:17.680Z,16
2019-04-12T18:03:18.029Z,16
2019-04-12T18:04:18.188Z,12
2019-04-12T18:05:18.065Z,12
2019-04-12T18:06:18.160Z,12
2019-04-12T18:07:17.979Z,12
2019-04-12T18:08:18.617Z,8
2019-04-12T18:09:18.429Z,8
2019-04-12T18:10:18.983Z,8
2019-04-12T18:11:19.041Z,8
2019-04-12T18:12:19.545Z,8
2019-04-12T18:13:19.844Z,4
2019-04-12T18:14:19.629Z,4
2019-04-12T18:15:20.232Z,4
2019-04-12T18:16:20.299Z,4
2019-04-12T18:17:20.382Z,4
2019-04-12T18:18:20.277Z,4
2019-04-12T18:19:20.079Z,0
2019-04-12T18:20:20.191Z,4
2019-04-12T18:21:20.626Z,0
2019-04-12T18:22:20.800Z,0
2019-04-12T18:23:20.536Z,4
2019-04-12T18:24:21.119Z,0
2019-04-12T18:25:21.145Z,0
2019-04-12T18:26:21.544Z,0
2019-04-12T18:27:21.841Z,0
2019-04-12T18:28:21.848Z,0
2019-04-12T18:29:21.919Z,0
2019-04-12T18:30:22.608Z,0
2019-04-12T18:31:22.524Z,0
2019-04-12T18:32:22.031Z,0
2019-04-12T18:33:22.559Z,0
2019-04-12T18:34:22.620Z,0
2019-04-12T18:35:22.210Z,0
2019-04-12T18:36:22.390Z,0
2019-04-12T18:37:22.722Z,0
2019-04-12T18:38:22.785Z,0
2019-04-12T18:39:22.519Z,0
2019-04-12T18:40:22.747Z,0
2019-04-12T18:41:22.627Z,0
2019-04-12T18:42:23.210Z,0
2019-04-12T18:43:23.294Z,0
2019-04-12T18:44:23.794Z,0
2019-04-12T18:45:23.647Z,0
2019-04-12T18:46:26.374Z,0
2019-04-12T18:47:26.995Z,0
2019-04-12T18:48:27.094Z,0
2019-04-12T18:49:26.781Z,0
2019-04-12T18:50:27.095Z,0
2019-04-12T18:51:26.801Z,0
2019-04-12T18:52:27.491Z,0
2019-04-12T18:53:27.412Z,0
2019-04-12T18:54:27.745Z,0
2019-04-12T18:55:27.837Z,0
2019-04-12T18:56:27.665Z,0
2019-04-12T18:57:28.276Z,0
2019-04-12T18:58:27.822Z,0
2019-04-12T18:59:28.613Z,0
2019-04-12T19:00:29.247Z,0
2019-04-12T19:01:29.094Z,0
2019-04-12T19:02:34.459Z,0
2019-04-12T19:03:28.969Z,0
2019-04-12T19:04:29.300Z,0
2019-04-12T19:05:28.818Z,0
2019-04-12T19:06:29.190Z,0
2019-04-12T19:07:29.256Z,0
2019-04-12T19:08:29.291Z,0
2019-04-12T19:09:30.426Z,0
2019-04-12T19:10:29.891Z,0
2019-04-12T19:11:30.382Z,0
2019-04-12T19:12:31.290Z,0
2019-04-12T19:13:30.971Z,0
2019-04-12T19:14:29.795Z,0
2019-04-12T19:15:29.807Z,0
2019-04-12T19:16:30.055Z,0
2019-04-12T19:17:29.878Z,0
2019-04-12T19:18:30.152Z,0
2019-04-12T19:19:30.585Z,0
2019-04-12T19:20:30.272Z,0
2019-04-12T19:21:30.164Z,0
2019-04-12T19:22:30.807Z,0
2019-04-12T19:23:30.228Z,0
2019-04-12T19:24:29.970Z,0
2019-04-12T19:25:30.724Z,0
2019-04-12T19:26:30.262Z,0
2019-04-12T19:27:31.774Z,0
2019-04-12T19:28:31.187Z,0
2019-04-12T19:29:31.120Z,0
2019-04-12T19:30:30.365Z,0
2019-04-12T19:31:31.062Z,0
2019-04-12T19:32:41.714Z,0
2019-04-12T19:33:30.956Z,0
2019-04-12T19:34:31.237Z,0
2019-04-12T19:35:32.691Z,0
2019-04-12T19:36:31.909Z,0
2019-04-12T19:37:31.726Z,0
2019-04-12T19:38:33.212Z,0
2019-04-12T19:39:32.558Z,0
2019-04-12T19:40:32.915Z,0
2019-04-12T19:41:31.958Z,0
2019-04-12T19:42:32.945Z,0
2019-04-12T19:43:32.535Z,0
2019-04-12T19:44:32.627Z,0
2019-04-12T19:45:32.839Z,0
2019-04-12T19:46:33.960Z,0
2019-04-12T19:47:32.738Z,0
2019-04-12T19:48:33.208Z,0
2019-04-12T19:49:33.455Z,0
2019-04-12T19:50:32.704Z,0
2019-04-12T19:51:32.749Z,0
2019-04-12T19:52:35.903Z,0
2019-04-12T19:53:33.297Z,0
2019-04-12T19:54:33.371Z,0
2019-04-12T19:55:33.744Z,0
2019-04-12T19:56:33.389Z,0
2019-04-12T19:57:33.972Z,0
2019-04-12T19:58:33.445Z,0
2019-04-12T19:59:33.096Z,0
2019-04-12T20:00:33.386Z,0
2019-04-12T20:01:33.356Z,0
2019-04-12T20:02:34.155Z,0
2019-04-12T20:03:33.836Z,0
2019-04-12T20:04:34.236Z,0
2019-04-12T20:05:34.126Z,0
2019-04-12T20:06:34.402Z,0
2019-04-12T20:07:34.905Z,0
2019-04-12T20:08:36.985Z,0
2019-04-12T20:09:34.850Z,0
2019-04-12T20:10:35.066Z,0
2019-04-12T20:11:35.302Z,0
2019-04-12T20:12:35.546Z,0
2019-04-12T20:13:36.032Z,0
2019-04-12T20:14:36.112Z,0
2019-04-12T20:15:35.527Z,0
2019-04-12T20:16:35.307Z,0
2019-04-12T20:17:35.965Z,0
2019-04-12T20:18:35.863Z,0
2019-04-12T20:19:36.560Z,0
2019-04-12T20:20:36.706Z,0
2019-04-12T20:21:37.274Z,0
2019-04-12T20:22:37.110Z,0
2019-04-12T20:23:37.140Z,0
2019-04-12T20:24:37.570Z,0
2019-04-12T20:25:37.416Z,0
2019-04-12T20:26:37.358Z,0
2019-04-12T20:27:37.754Z,0
2019-04-12T20:28:38.173Z,0
2019-04-12T20:29:37.956Z,0
2019-04-12T20:30:38.742Z,0
2019-04-12T20:31:38.947Z,0
2019-04-12T20:32:38.616Z,0
2019-04-12T20:33:38.908Z,0
2019-04-12T20:34:38.941Z,0
2019-04-12T20:35:39.086Z,0
2019-04-12T20:36:38.730Z,0
2019-04-12T20:37:38.651Z,0
2019-04-12T20:38:38.649Z,0
2019-04-12T20:39:39.204Z,0
2019-04-12T20:40:39.968Z,0
2019-04-12T20:41:39.626Z,0
2019-04-12T20:42:40.050Z,0
2019-04-12T20:43:40.218Z,0
2019-04-12T20:44:40.359Z,0
2019-04-12T20:45:40.651Z,0
2019-04-12T20:46:40.314Z,0
2019-04-12T20:47:40.590Z,0
2019-04-12T20:48:40.500Z,0
2019-04-12T20:49:40.811Z,0
2019-04-12T20:50:41.604Z,0
2019-04-12T20:51:41.497Z,0
2019-04-12T20:52:41.008Z,0
2019-04-12T20:53:40.774Z,0
2019-04-12T20:54:41.309Z,0
2019-04-12T20:55:42.099Z,0
2019-04-12T20:56:41.786Z,0
2019-04-12T20:57:42.240Z,0
2019-04-12T20:58:41.777Z,0
2019-04-12T20:59:41.987Z,0
2019-04-12T21:00:55.137Z,0
2019-04-12T21:01:54.766Z,0
2019-04-12T21:02:54.701Z,0
2019-04-12T21:03:55.128Z,0
2019-04-12T21:04:54.859Z,0
2019-04-12T21:05:55.438Z,0
2019-04-12T21:06:54.942Z,0
2019-04-12T21:07:55.483Z,0
2019-04-12T21:08:55.477Z,0
2019-04-12T21:09:55.331Z,0
2019-04-12T21:10:55.808Z,0
2019-04-12T21:11:55.715Z,0
2019-04-12T21:12:55.623Z,0
2019-04-12T21:13:55.261Z,0
2019-04-12T21:14:55.647Z,0
2019-04-12T21:15:55.919Z,0
2019-04-12T21:16:56.103Z,0
2019-04-12T21:17:55.501Z,0
2019-04-12T21:18:57.969Z,0
2019-04-12T21:19:58.057Z,0
2019-04-12T21:20:58.138Z,0
2019-04-12T21:21:58.059Z,0
2019-04-12T21:22:58.144Z,0
2019-04-12T21:23:57.930Z,0
2019-04-12T21:24:58.128Z,0
2019-04-12T21:25:58.504Z,0
2019-04-12T21:26:58.484Z,0
2019-04-12T21:27:58.370Z,0
2019-04-12T21:28:58.558Z,0
2019-04-12T21:29:58.771Z,0
2019-04-12T21:30:58.952Z,0
2019-04-12T21:31:59.110Z,0
2019-04-12T21:33:00.369Z,0
2019-04-12T21:33:58.680Z,0
2019-04-12T21:34:58.584Z,0
2019-04-12T21:35:58.395Z,0
2019-04-12T21:36:59.016Z,0
2019-04-12T21:37:59.303Z,0
2019-04-12T21:38:59.180Z,0
2019-04-12T21:39:59.524Z,0
2019-04-12T21:41:00.413Z,0
2019-04-12T21:41:59.750Z,0
2019-04-12T21:43:00.304Z,0
2019-04-12T21:44:10.867Z,0
2019-04-12T21:44:59.897Z,0
2019-04-12T21:46:00.795Z,0
2019-04-12T21:47:00.703Z,0
2019-04-12T21:48:00.702Z,0
2019-04-12T21:49:00.873Z,0
2019-04-12T21:50:01.092Z,0
2019-04-12T21:51:01.091Z,0
2019-04-12T21:52:01.397Z,0
2019-04-12T21:53:02.018Z,0
2019-04-12T21:54:01.711Z,0
2019-04-12T21:55:01.783Z,0
2019-04-12T21:56:02.767Z,0
2019-04-12T21:57:02.811Z,0
2019-04-12T21:58:02.451Z,0
2019-04-12T21:59:02.453Z,0
2019-04-12T22:01:02.601Z,0
2019-04-12T22:02:02.461Z,0
2019-04-12T22:03:02.924Z,0
2019-04-12T22:04:03.030Z,0
2019-04-12T22:05:02.385Z,0
2019-04-12T22:06:02.968Z,0
2019-04-12T22:07:03.028Z,0
2019-04-12T22:08:03.405Z,0
2019-04-12T22:09:03.533Z,0
2019-04-12T22:10:03.578Z,0
2019-04-12T22:11:03.359Z,0
2019-04-12T22:12:04.142Z,0
2019-04-12T22:13:04.203Z,0
2019-04-12T22:14:16.556Z,0
2019-04-12T22:15:04.206Z,0
2019-04-12T22:16:04.143Z,0
2019-04-12T22:17:04.257Z,0
2019-04-12T22:18:03.914Z,0
2019-04-12T22:19:04.671Z,0
2019-04-12T22:20:05.176Z,0
2019-04-12T22:21:05.193Z,0
2019-04-12T22:22:05.386Z,0
2019-04-12T22:23:04.881Z,0
2019-04-12T22:24:05.599Z,0
2019-04-12T22:25:05.143Z,0
2019-04-12T22:26:05.396Z,0
2019-04-12T22:27:05.604Z,0
2019-04-12T22:28:05.626Z,0
2019-04-12T22:29:06.155Z,0
2019-04-12T22:30:06.228Z,0
2019-04-12T22:31:06.401Z,0
2019-04-12T22:32:06.854Z,0
2019-04-12T22:33:07.273Z,0
2019-04-12T22:34:07.412Z,0
2019-04-12T22:35:07.616Z,0
2019-04-12T22:36:08.061Z,0
2019-04-12T22:37:08.115Z,0
2019-04-12T22:38:07.892Z,0
2019-04-12T22:39:07.759Z,0
2019-04-12T22:40:08.354Z,0
2019-04-12T22:41:08.874Z,0
2019-04-12T22:42:08.888Z,0
2019-04-12T22:43:08.961Z,0
2019-04-12T22:44:08.902Z,0
2019-04-12T22:45:09.298Z,0
2019-04-12T22:46:08.909Z,0
2019-04-12T22:47:09.173Z,0
2019-04-12T22:48:09.953Z,0
2019-04-12T22:49:09.870Z,0
2019-04-12T22:50:09.839Z,0
2019-04-12T22:51:10.276Z,0
2019-04-12T22:52:10.829Z,0
2019-04-12T22:53:11.298Z,0
2019-04-12T22:54:11.034Z,0
2019-04-12T22:55:11.528Z,0
2019-04-12T22:56:10.569Z,0
2019-04-12T22:57:11.354Z,0
2019-04-12T22:58:11.477Z,0
2019-04-12T22:59:11.236Z,0
2019-04-12T23:00:18.166Z,0
2019-04-12T23:01:17.860Z,0
2019-04-12T23:02:18.558Z,0
2019-04-12T23:03:18.588Z,0
2019-04-12T23:04:19.002Z,0
2019-04-12T23:05:18.860Z,0
2019-04-12T23:06:18.776Z,0
2019-04-12T23:07:19.175Z,0
2019-04-12T23:08:19.467Z,0
2019-04-12T23:09:19.343Z,0
2019-04-12T23:10:19.715Z,0
2019-04-12T23:11:19.851Z,0
2019-04-12T23:12:20.517Z,0
2019-04-12T23:13:20.529Z,0
2019-04-12T23:14:20.389Z,0
2019-04-12T23:15:20.550Z,0
2019-04-12T23:16:20.958Z,0
2019-04-12T23:17:21.199Z,0
2019-04-12T23:18:21.214Z,0
2019-04-12T23:19:21.130Z,0
2019-04-12T23:20:21.811Z,0
2019-04-12T23:21:21.949Z,0
2019-04-12T23:22:21.701Z,0
2019-04-12T23:23:22.215Z,0
2019-04-12T23:24:22.102Z,0
2019-04-12T23:25:22.747Z,0
2019-04-12T23:26:23.163Z,0
2019-04-12T23:27:23.712Z,0
2019-04-12T23:28:23.600Z,0
2019-04-12T23:29:23.750Z,0
2019-04-12T23:30:26.269Z,0
2019-04-12T23:31:27.025Z,0
2019-04-12T23:32:26.966Z,0
2019-04-12T23:33:27.057Z,0
2019-04-12T23:34:26.467Z,0
2019-04-12T23:35:27.144Z,0
2019-04-12T23:36:27.265Z,0
2019-04-12T23:37:26.676Z,0
2019-04-12T23:38:27.336Z,0
2019-04-12T23:39:27.401Z,0
2019-04-12T23:40:27.896Z,0
2019-04-12T23:41:27.293Z,0
2019-04-12T23:42:27.952Z,0
2019-04-12T23:43:27.743Z,0
2019-04-12T23:44:28.180Z,0